Time;durP1;ratioP1;P1;durP2;ratioP2;P2;SDS_P1;SDS_P2;PMS_P1;PMS_P2;Temp;Humidity;BMP_temperature;BMP_pressure;BME280_temperature;BME280_humidity;BME280_pressure;Samples;Min_cycle;Max_cycle;Signal;HPM_P1;HPM_P2
2021/07/31 00:00:01;;;;;;;1.52;0.95;;;;;;;17.40;67.58;100349.72;3573605;40;20169;-78
2021/07/31 00:02:39;;;;;;;2.50;1.10;;;;;;;17.42;67.34;100354.91;3565478;40;20073;-77
2021/07/31 00:05:07;;;;;;;2.35;1.10;;;;;;;17.44;67.59;100368.91;3556411;40;20354;-78
2021/07/31 00:07:35;;;;;;;1.80;1.02;;;;;;;17.38;67.34;100360.34;3574634;40;20053;-78
2021/07/31 00:10:04;;;;;;;2.58;0.98;;;;;;;17.30;67.57;100357.31;3571255;40;20063;-78
2021/07/31 00:12:31;;;;;;;2.30;1.10;;;;;;;17.31;67.69;100366.94;3580133;40;20107;-77
2021/07/31 00:14:59;;;;;;;2.27;1.20;;;;;;;17.22;67.51;100358.69;3556026;40;20061;-78
2021/07/31 00:17:27;;;;;;;2.58;1.10;;;;;;;17.24;67.56;100373.50;3576335;40;20060;-78
2021/07/31 00:19:54;;;;;;;;;;;;;;;17.27;65.31;100378.59;3569764;40;20068;-77
2021/07/31 00:22:20;;;;;;;3.42;1.20;;;;;;;17.19;67.67;100369.41;3573679;40;19937;-77
2021/07/31 00:24:47;;;;;;;4.75;1.60;;;;;;;17.07;67.90;100349.81;3580521;40;20433;-77
2021/07/31 00:27:15;;;;;;;2.17;1.20;;;;;;;17.09;67.80;100363.78;3568922;40;20130;-77
2021/07/31 00:29:45;;;;;;;1.42;0.70;;;;;;;17.11;67.63;100377.75;3558998;40;20329;-77
2021/07/31 00:32:12;;;;;;;2.03;0.90;;;;;;;17.09;68.58;100384.91;3571799;40;20071;-78
2021/07/31 00:34:40;;;;;;;4.05;1.10;;;;;;;17.07;68.14;100381.47;3579354;40;20142;-77
2021/07/31 00:37:07;;;;;;;2.45;1.05;;;;;;;17.04;68.39;100381.66;3570951;40;20073;-77
2021/07/31 00:39:38;;;;;;;1.67;0.98;;;;;;;17.01;68.54;100377.38;3580497;40;20378;-77
2021/07/31 00:42:08;;;;;;;1.90;0.88;;;;;;;17.05;68.35;100378.94;3563940;40;20057;-77
2021/07/31 00:44:36;;;;;;;3.33;1.08;;;;;;;17.03;68.56;100370.25;3575939;40;20060;-77
2021/07/31 00:47:05;;;;;;;2.63;1.00;;;;;;;17.01;68.39;100371.25;3577988;40;20073;-77
2021/07/31 00:49:34;;;;;;;3.55;1.15;;;;;;;17.04;68.33;100379.03;3570285;40;20053;-77
2021/07/31 00:52:03;;;;;;;2.03;1.02;;;;;;;17.06;68.15;100385.06;3575425;40;20104;-76
2021/07/31 00:54:30;;;;;;;2.92;1.15;;;;;;;17.06;68.76;100374.50;3564499;40;20765;-77
2021/07/31 00:56:58;;;;;;;4.65;1.05;;;;;;;17.01;69.01;100371.25;3570741;40;20057;-77
2021/07/31 00:59:30;;;;;;;1.85;0.95;;;;;;;17.04;68.67;100371.13;3565916;40;20432;-77
2021/07/31 01:01:57;;;;;;;1.92;1.05;;;;;;;17.04;68.69;100381.66;3581423;40;20664;-77
2021/07/31 01:04:25;;;;;;;2.17;1.08;;;;;;;17.03;68.99;100372.91;3580830;40;20069;-77
2021/07/31 01:06:52;;;;;;;3.42;1.52;;;;;;;17.02;68.73;100379.09;3576380;40;20057;-78
2021/07/31 01:09:19;;;;;;;2.55;1.20;;;;;;;17.02;68.70;100380.88;3579874;40;20055;-77
2021/07/31 01:11:49;;;;;;;2.90;1.10;;;;;;;17.01;68.53;100376.53;3567677;40;20059;-77
2021/07/31 01:14:17;;;;;;;2.72;1.20;;;;;;;17.02;68.79;100383.50;3580468;40;20061;-77
2021/07/31 01:16:45;;;;;;;3.80;1.17;;;;;;;16.94;68.81;100369.91;3571583;40;20142;-78
2021/07/31 01:19:14;;;;;;;2.60;1.05;;;;;;;16.94;68.68;100365.47;3578299;40;20047;-77
2021/07/31 01:21:46;;;;;;;3.03;1.35;;;;;;;16.96;68.82;100368.88;3577130;40;20120;-78
2021/07/31 01:24:25;;;;;;;2.85;1.08;;;;;;;16.95;68.94;100374.25;3560644;40;20064;-77
2021/07/31 01:26:52;;;;;;;2.35;0.98;;;;;;;16.95;69.08;100376.88;3582160;40;20064;-78
2021/07/31 01:29:22;;;;;;;3.75;1.13;;;;;;;16.96;69.00;100384.69;3556520;40;20065;-77
2021/07/31 01:31:50;;;;;;;1.85;0.90;;;;;;;16.90;69.19;100369.22;3570626;40;20052;-77
2021/07/31 01:34:18;;;;;;;2.75;0.85;;;;;;;16.85;69.28;100361.53;3573931;40;20067;-78
2021/07/31 01:36:46;;;;;;;3.60;1.27;;;;;;;16.89;69.21;100364.03;3571908;40;20064;-77
2021/07/31 01:39:15;;;;;;;3.83;1.17;;;;;;;16.89;69.63;100358.75;3573527;40;20721;-77
2021/07/31 01:41:49;;;;;;;4.95;1.30;;;;;;;16.98;68.66;100369.66;3566878;40;20059;-77
2021/07/31 01:44:22;;;;;;;2.60;1.42;;;;;;;16.96;69.01;100365.38;3557738;40;20100;-77
2021/07/31 01:46:51;;;;;;;2.72;1.25;;;;;;;16.98;69.69;100361.75;3564508;40;20081;-77
2021/07/31 01:49:22;;;;;;;2.90;1.13;;;;;;;16.97;69.46;100370.56;3579052;40;20098;-77
2021/07/31 01:51:57;;;;;;;3.90;1.40;;;;;;;16.99;69.64;100367.88;3569149;40;20064;-77
2021/07/31 01:54:25;;;;;;;4.18;1.52;;;;;;;16.94;69.60;100348.81;3568188;40;20045;-77
2021/07/31 01:56:53;;;;;;;4.32;1.52;;;;;;;16.99;69.53;100352.03;3553816;40;20061;-78
2021/07/31 01:59:24;;;;;;;3.47;1.50;;;;;;;17.02;69.55;100359.78;3562233;40;20092;-77
2021/07/31 02:01:52;;;;;;;;;;;;;;;17.09;66.95;100364.66;3572628;40;20490;-78
2021/07/31 02:04:29;;;;;;;2.80;0.90;;;;;;;17.06;68.57;100359.53;3568322;40;20274;-77
2021/07/31 02:07:44;;;;;;;2.38;1.05;;;;;;;17.10;67.62;100354.94;3573374;40;20715;-77
2021/07/31 02:10:13;;;;;;;3.45;1.10;;;;;;;17.05;69.37;100351.69;3570399;40;20068;-78
2021/07/31 02:12:43;;;;;;;2.47;1.30;;;;;;;17.07;69.05;100355.09;3572106;40;20068;-78
2021/07/31 02:15:15;;;;;;;2.50;1.10;;;;;;;17.07;69.27;100360.38;3565238;40;20060;-78
2021/07/31 02:17:52;;;;;;;2.63;1.08;;;;;;;17.05;68.43;100352.56;3567474;40;20085;-78
2021/07/31 02:20:21;;;;;;;4.47;1.30;;;;;;;17.02;69.29;100362.41;3556659;40;20060;-77
2021/07/31 02:22:59;;;;;;;3.28;1.20;;;;;;;17.02;68.99;100350.06;3557903;40;20045;-77
2021/07/31 02:25:46;;;;;;;;;;;;;;;17.06;66.87;100358.69;3556500;40;20048;-77
2021/07/31 02:28:26;;;;;;;2.97;1.27;;;;;;;16.96;69.28;100352.19;3565637;40;19937;-77
2021/07/31 02:30:56;;;;;;;;;;;;;;;17.03;67.10;100365.00;3571605;40;20306;-77
2021/07/31 02:33:24;;;;;;;4.70;1.20;;;;;;;16.95;69.15;100359.25;3569524;40;19956;-78
2021/07/31 02:36:01;;;;;;;3.55;1.30;;;;;;;16.99;68.57;100367.88;3559123;40;20048;-76
2021/07/31 02:38:47;;;;;;;2.67;1.15;;;;;;;16.96;69.49;100360.13;3558041;40;20637;-77
2021/07/31 02:41:15;;;;;;;2.72;1.20;;;;;;;16.96;69.36;100362.75;3577385;40;20049;-77
2021/07/31 02:43:42;;;;;;;2.73;1.20;;;;;;;16.85;69.89;100345.72;3554609;40;20052;-78
2021/07/31 02:46:10;;;;;;;3.95;1.20;;;;;;;16.83;69.55;100336.22;3579040;40;20040;-77
2021/07/31 02:48:40;;;;;;;5.15;1.42;;;;;;;16.96;69.64;100357.47;3569226;40;20096;-77
2021/07/31 02:51:12;;;;;;;2.88;1.20;;;;;;;17.00;69.31;100365.13;3569759;40;20053;-78
2021/07/31 02:53:59;;;;;;;2.97;1.30;;;;;;;16.96;69.72;100363.59;3576603;40;20484;-77
2021/07/31 02:56:30;;;;;;;3.95;1.10;;;;;;;16.91;69.59;100356.88;3579634;40;20084;-78
2021/07/31 02:59:02;;;;;;;4.28;1.08;;;;;;;16.95;69.45;100361.06;3573100;40;20052;-77
2021/07/31 03:01:31;;;;;;;4.55;1.20;;;;;;;16.88;69.53;100349.13;3576741;40;20067;-78
2021/07/31 03:04:00;;;;;;;3.60;1.33;;;;;;;16.90;69.82;100356.03;3558262;40;20974;-77
2021/07/31 03:06:28;;;;;;;4.20;1.27;;;;;;;16.86;69.86;100357.97;3564195;40;20776;-78
2021/07/31 03:08:57;;;;;;;8.65;1.80;;;;;;;16.89;70.08;100356.13;3563984;40;20077;-77
2021/07/31 03:11:25;;;;;;;2.78;1.15;;;;;;;16.90;70.01;100363.09;3574125;40;20049;-77
2021/07/31 03:13:52;;;;;;;5.32;1.52;;;;;;;16.90;70.11;100355.19;3567600;40;20056;-77
2021/07/31 03:16:25;;;;;;;2.50;1.08;;;;;;;16.89;69.56;100353.47;3570092;40;20379;-78
2021/07/31 03:18:58;;;;;;;3.30;0.93;;;;;;;16.85;69.76;100356.28;3581629;40;20154;-77
2021/07/31 03:21:25;;;;;;;6.32;1.30;;;;;;;16.84;70.02;100349.31;3572573;40;20794;-77
2021/07/31 03:24:06;;;;;;;2.42;1.05;;;;;;;16.86;69.51;100347.41;3564542;40;20049;-77
2021/07/31 03:26:35;;;;;;;3.38;1.10;;;;;;;16.83;69.56;100344.13;3576920;40;20112;-77
2021/07/31 03:29:05;;;;;;;6.60;1.25;;;;;;;16.81;69.67;100336.28;3577097;40;20052;-78
2021/07/31 03:31:34;;;;;;;4.75;1.13;;;;;;;16.86;69.39;100347.41;3580714;40;20108;-78
2021/07/31 03:34:02;;;;;;;1.77;0.75;;;;;;;16.82;69.45;100350.31;3569423;40;20061;-78
2021/07/31 03:36:30;;;;;;;2.65;0.82;;;;;;;16.79;69.42;100346.06;3577125;40;20084;-78
2021/07/31 03:39:06;;;;;;;7.22;1.10;;;;;;;16.84;69.13;100344.03;3566506;40;20414;-78
2021/07/31 03:41:37;;;;;;;3.35;0.95;;;;;;;16.80;69.45;100347.75;3570509;40;20092;-77
2021/07/31 03:44:06;;;;;;;3.20;0.90;;;;;;;16.77;69.53;100345.28;3570850;40;20587;-77
2021/07/31 03:47:04;;;;;;;1.98;0.90;;;;;;;16.86;68.63;100351.84;3576901;40;20319;-77
2021/07/31 03:49:33;;;;;;;2.33;0.82;;;;;;;16.76;69.58;100334.81;3571307;40;20057;-78
2021/07/31 03:52:00;;;;;;;3.13;1.15;;;;;;;16.79;69.99;100351.34;3580301;40;20337;-78
2021/07/31 03:54:27;;;;;;;3.95;1.30;;;;;;;16.79;69.92;100340.78;3567706;40;20065;-77
2021/07/31 03:56:55;;;;;;;4.05;1.20;;;;;;;16.77;69.80;100339.16;3571114;40;20095;-77
2021/07/31 03:59:34;;;;;;;3.22;0.90;;;;;;;16.83;70.00;100342.34;3575265;40;20064;-78
2021/07/31 04:02:02;;;;;;;4.32;1.60;;;;;;;16.75;70.18;100328.69;3575033;40;20057;-77
2021/07/31 04:04:34;;;;;;;2.55;1.10;;;;;;;16.80;70.08;100333.72;3567765;40;20061;-77
2021/07/31 04:07:02;;;;;;;3.80;1.20;;;;;;;16.78;70.14;100333.81;3579507;40;20045;-77
2021/07/31 04:09:36;;;;;;;3.20;0.98;;;;;;;16.84;69.25;100333.47;3562779;40;20055;-78
2021/07/31 04:12:34;;;;;;;1.25;0.60;;;;;;;16.79;69.92;100340.78;3573583;40;20889;-77
2021/07/31 04:15:20;;;;;;;5.90;1.02;;;;;;;16.80;70.41;100342.50;3565685;40;20111;-78
2021/07/31 04:17:52;;;;;;;2.63;1.02;;;;;;;16.77;70.06;100334.72;3578702;40;20126;-77
2021/07/31 04:20:21;;;;;;;3.63;1.10;;;;;;;16.77;70.30;100332.09;3560639;40;20061;-78
2021/07/31 04:22:48;;;;;;;4.03;1.30;;;;;;;16.73;69.93;100327.94;3550640;40;20065;-77
2021/07/31 04:25:23;;;;;;;2.83;1.08;;;;;;;16.76;69.50;100333.03;3570096;40;20085;-77
2021/07/31 04:27:51;;;;;;;2.47;0.80;;;;;;;16.78;69.90;100339.09;3563024;40;20081;-77
2021/07/31 04:30:18;;;;;;;;;;;;;;;16.82;68.07;100343.25;3565401;40;20069;-78
2021/07/31 04:32:45;;;;;;;2.53;0.73;;;;;;;16.77;69.58;100340.00;3580641;40;19933;-77
2021/07/31 04:35:11;;;;;;;2.08;0.70;;;;;;;16.72;69.79;100333.28;3572675;40;20316;-77
2021/07/31 04:37:39;;;;;;;3.97;1.00;;;;;;;16.73;69.96;100335.84;3577531;40;20057;-77
2021/07/31 04:40:06;;;;;;;;;;;;;;;16.80;67.95;100339.84;3581144;40;20081;-77
2021/07/31 04:42:35;;;;;;;3.63;0.80;;;;;;;16.72;69.75;100330.66;3574779;40;20024;-77
2021/07/31 04:45:03;;;;;;;3.47;1.00;;;;;;;16.70;69.83;100335.97;3576307;40;20875;-77
2021/07/31 04:47:38;;;;;;;2.88;0.90;;;;;;;16.68;69.00;100329.09;3583829;40;20429;-78
2021/07/31 04:50:08;;;;;;;2.97;1.10;;;;;;;16.64;69.55;100331.03;3565799;40;20059;-78
2021/07/31 04:52:36;;;;;;;3.72;0.98;;;;;;;16.60;69.75;100335.63;3580508;40;20087;-78
2021/07/31 04:55:03;;;;;;;2.78;0.80;;;;;;;16.63;69.80;100334.63;3572994;40;20134;-77
2021/07/31 04:57:30;;;;;;;4.47;1.00;;;;;;;16.60;70.12;100337.41;3581348;40;20060;-77
2021/07/31 05:00:03;;;;;;;;;;;;;;;16.63;67.94;100334.63;3581088;40;20107;-77
2021/07/31 05:02:33;;;;;;;4.85;1.00;;;;;;;16.58;69.54;100331.38;3561604;40;19952;-77
2021/07/31 05:05:00;;;;;;;2.85;1.08;;;;;;;16.51;70.00;100329.97;3570811;40;20080;-78
2021/07/31 05:07:33;;;;;;;4.05;1.02;;;;;;;16.55;69.69;100342.06;3557227;40;20060;-77
2021/07/31 05:10:06;;;;;;;1.60;0.88;;;;;;;16.53;69.89;100338.66;3582262;40;20406;-77
2021/07/31 05:12:32;;;;;;;1.70;0.80;;;;;;;16.50;70.22;100344.09;3566647;40;20049;-77
2021/07/31 05:15:01;;;;;;;2.00;1.00;;;;;;;16.34;70.37;100315.06;3579665;40;20065;-77
2021/07/31 05:17:29;;;;;;;2.85;0.90;;;;;;;16.44;70.61;100328.63;3581245;40;20081;-77
2021/07/31 05:19:56;;;;;;;3.70;1.10;;;;;;;16.46;70.61;100332.00;3571415;40;20056;-77
2021/07/31 05:22:24;;;;;;;1.42;0.60;;;;;;;16.52;70.40;100342.22;3583881;40;20064;-77
2021/07/31 05:24:53;;;;;;;3.20;0.90;;;;;;;16.51;70.48;100343.16;3565627;40;20904;-77
2021/07/31 05:27:22;;;;;;;3.42;1.08;;;;;;;16.51;70.96;100338.72;3576189;40;20067;-78
2021/07/31 05:29:49;;;;;;;3.88;1.02;;;;;;;16.53;71.03;100341.31;3580254;40;20049;-77
2021/07/31 05:32:17;;;;;;;2.43;1.07;;;;;;;16.52;71.05;100336.94;3574222;40;20056;-77
2021/07/31 05:34:43;;;;;;;7.15;1.50;;;;;;;16.57;71.02;100340.19;3565493;40;21045;-77
2021/07/31 05:37:10;;;;;;;2.85;0.77;;;;;;;16.54;70.93;100335.94;3578854;40;20089;-77
2021/07/31 05:39:39;;;;;;;2.27;0.87;;;;;;;16.62;70.77;100343.44;3563686;40;20061;-77
2021/07/31 05:42:06;;;;;;;2.45;1.10;;;;;;;16.61;71.21;100339.09;3569755;40;20079;-77
2021/07/31 05:44:33;;;;;;;4.23;1.50;;;;;;;16.66;71.00;100330.94;3561298;40;20072;-77
2021/07/31 05:47:00;;;;;;;0.93;0.57;;;;;;;16.70;71.37;100338.59;3578224;40;20330;-78
2021/07/31 05:49:30;;;;;;;2.38;0.90;;;;;;;16.77;70.60;100344.44;3581185;40;20036;-77
2021/07/31 05:51:57;;;;;;;3.08;1.23;;;;;;;16.78;70.89;100344.38;3556668;40;20068;-78
2021/07/31 05:54:24;;;;;;;3.07;1.00;;;;;;;16.71;71.27;100324.53;3580520;40;20089;-77
2021/07/31 05:56:57;;;;;;;2.60;1.10;;;;;;;16.84;70.62;100340.53;3572773;40;20068;-77
2021/07/31 05:59:24;;;;;;;4.93;1.20;;;;;;;16.81;70.87;100338.91;3558602;40;20048;-77
2021/07/31 06:01:53;;;;;;;;;;;;;;;16.94;69.25;100340.91;3582091;40;20499;-77
2021/07/31 06:04:22;;;;;;;3.95;1.00;;;;;;;16.93;70.88;100347.06;3581088;40;19944;-78
2021/07/31 06:06:50;;;;;;;4.88;1.65;;;;;;;16.94;71.20;100346.16;3566080;40;20055;-77
2021/07/31 06:09:22;;;;;;;;;;;;;;;17.04;69.03;100344.72;3557870;40;20053;-78
2021/07/31 06:11:48;;;;;;;3.67;0.90;;;;;;;16.97;70.76;100338.06;3572009;40;19947;-77
2021/07/31 06:14:22;;;;;;;4.47;1.25;;;;;;;17.03;70.22;100340.38;3580755;40;20075;-77
2021/07/31 06:16:51;;;;;;;2.47;0.90;;;;;;;17.06;70.85;100354.25;3568510;40;20500;-77
2021/07/31 06:19:20;;;;;;;3.13;1.33;;;;;;;17.09;71.01;100353.25;3564165;40;20102;-77
2021/07/31 06:21:49;;;;;;;3.35;1.10;;;;;;;17.09;70.60;100354.09;3576344;40;20048;-77
2021/07/31 06:24:16;;;;;;;2.13;1.00;;;;;;;17.05;70.52;100346.44;3565779;40;20053;-77
2021/07/31 06:26:43;;;;;;;3.15;1.17;;;;;;;17.10;70.73;100355.78;3559488;40;20073;-78
2021/07/31 06:29:10;;;;;;;2.67;0.90;;;;;;;17.09;70.71;100347.97;3581157;40;20044;-77
2021/07/31 06:31:38;;;;;;;2.55;1.15;;;;;;;17.13;70.91;100357.38;3578580;40;20108;-77
2021/07/31 06:34:07;;;;;;;3.47;1.10;;;;;;;17.14;70.88;100351.19;3579478;40;20061;-77
2021/07/31 06:36:42;;;;;;;3.33;1.40;;;;;;;17.21;70.15;100357.81;3556328;40;20056;-78
2021/07/31 06:39:11;;;;;;;3.38;1.10;;;;;;;17.22;70.43;100359.53;3574837;40;20061;-78
2021/07/31 06:41:38;;;;;;;3.13;1.15;;;;;;;17.28;71.11;100375.00;3574875;40;20243;-77
2021/07/31 06:44:05;;;;;;;3.03;1.05;;;;;;;17.28;70.77;100372.38;3555990;40;20057;-77
2021/07/31 06:46:33;;;;;;;3.40;1.25;;;;;;;17.33;70.77;100372.97;3577785;40;20515;-77
2021/07/31 06:49:00;;;;;;;3.05;1.15;;;;;;;17.31;70.59;100366.94;3568029;40;20065;-77
2021/07/31 06:51:27;;;;;;;2.58;1.05;;;;;;;17.42;70.79;100371.59;3558253;40;20052;-78
2021/07/31 06:54:01;;;;;;;3.33;1.38;;;;;;;17.50;70.13;100379.09;3562151;40;20057;-77
2021/07/31 06:56:33;;;;;;;2.33;0.98;;;;;;;17.55;70.24;100385.81;3561247;40;20093;-77
2021/07/31 06:59:00;;;;;;;2.45;0.88;;;;;;;17.54;70.82;100378.00;3569898;40;20068;-77
2021/07/31 07:01:27;;;;;;;4.53;1.23;;;;;;;17.54;70.84;100370.94;3577915;40;20415;-77
2021/07/31 07:03:59;;;;;;;2.47;1.10;;;;;;;17.74;70.57;100382.16;3569524;40;20052;-78
2021/07/31 07:06:27;;;;;;;3.13;1.23;;;;;;;17.75;70.54;100373.31;3555479;40;20077;-77
2021/07/31 07:09:04;;;;;;;2.72;1.20;;;;;;;17.86;70.05;100381.47;3577744;40;20068;-78
2021/07/31 07:11:32;;;;;;;3.53;1.00;;;;;;;17.92;69.73;100393.47;3570761;40;20093;-77
2021/07/31 07:13:58;;;;;;;;;;;;;;;18.06;68.87;100388.22;3579858;40;20409;-78
2021/07/31 07:16:35;;;;;;;2.60;0.95;;;;;;;18.10;69.68;100389.75;3576979;40;20022;-78
2021/07/31 07:19:03;;;;;;;2.25;1.13;;;;;;;18.12;69.83;100387.84;3556340;40;20064;-78
2021/07/31 07:21:32;;;;;;;2.15;0.80;;;;;;;18.18;69.37;100398.06;3576848;40;20060;-78
2021/07/31 07:23:59;;;;;;;3.03;1.25;;;;;;;18.20;69.38;100393.56;3578336;40;20060;-77
2021/07/31 07:26:26;;;;;;;4.20;0.97;;;;;;;18.24;69.43;100392.41;3567258;40;20524;-78
2021/07/31 07:28:55;;;;;;;3.58;1.10;;;;;;;18.27;68.98;100386.94;3576412;40;20053;-77
2021/07/31 07:31:22;;;;;;;3.65;1.40;;;;;;;18.31;68.59;100388.47;3573885;40;20083;-77
2021/07/31 07:33:48;;;;;;;3.20;1.37;;;;;;;18.32;68.29;100391.97;3576821;40;20093;-77
2021/07/31 07:36:17;;;;;;;4.13;1.13;;;;;;;18.41;68.18;100408.13;3568177;40;20055;-77
2021/07/31 07:38:46;;;;;;;3.72;1.20;;;;;;;18.42;67.80;100408.97;3562781;40;20059;-77
2021/07/31 07:41:15;;;;;;;3.60;0.95;;;;;;;18.44;68.12;100408.88;3568305;40;20856;-77
2021/07/31 07:43:42;;;;;;;2.55;1.17;;;;;;;18.41;67.90;100400.19;3562916;40;20566;-77
2021/07/31 07:46:15;;;;;;;6.22;1.20;;;;;;;18.44;67.58;100400.94;3575492;40;20064;-77
2021/07/31 07:48:43;;;;;;;6.03;1.70;;;;;;;18.45;68.02;100400.00;3570667;40;20065;-77
2021/07/31 07:51:09;;;;;;;;;;;;;;;18.54;67.22;100405.59;3569075;40;20351;-77
2021/07/31 07:53:38;;;;;;;2.92;1.10;;;;;;;18.48;67.78;100405.97;3572995;40;19937;-77
2021/07/31 07:56:05;;;;;;;5.90;1.23;;;;;;;18.47;67.26;100398.13;3569934;40;20084;-77
2021/07/31 07:58:33;;;;;;;2.50;1.23;;;;;;;18.51;67.19;100402.28;3574683;40;20076;-77
2021/07/31 08:01:00;;;;;;;3.70;1.20;;;;;;;18.47;67.67;100404.25;3567810;40;20065;-77
2021/07/31 08:03:30;;;;;;;3.67;1.30;;;;;;;18.51;67.79;100410.22;3576532;40;20473;-77
2021/07/31 08:05:57;;;;;;;2.05;0.98;;;;;;;18.46;67.51;100407.00;3564300;40;20111;-77
2021/07/31 08:08:24;;;;;;;2.10;1.10;;;;;;;18.48;67.92;100407.75;3577308;40;20040;-77
2021/07/31 08:10:58;;;;;;;1.92;0.98;;;;;;;18.55;67.63;100412.59;3561694;40;20346;-78
2021/07/31 08:13:31;;;;;;;2.95;1.15;;;;;;;18.60;67.91;100414.94;3566814;40;20080;-77
2021/07/31 08:15:58;;;;;;;3.08;1.17;;;;;;;18.58;67.69;100408.91;3571012;40;20093;-77
2021/07/31 08:18:28;;;;;;;2.57;1.30;;;;;;;18.69;67.20;100413.56;3573732;40;20065;-77
2021/07/31 08:20:54;;;;;;;2.47;0.95;;;;;;;18.68;67.01;100412.72;3564619;40;20059;-77
2021/07/31 08:23:22;;;;;;;3.08;1.27;;;;;;;18.72;66.90;100416.88;3572795;40;20061;-77
2021/07/31 08:26:02;;;;;;;3.35;1.20;;;;;;;18.78;66.57;100405.91;3573694;40;20081;-78
2021/07/31 08:28:32;;;;;;;3.40;1.10;;;;;;;18.80;66.77;100416.41;3568629;40;20061;-78
2021/07/31 08:31:00;;;;;;;4.28;0.93;;;;;;;18.76;66.79;100415.75;3567372;40;20342;-78
2021/07/31 08:33:28;;;;;;;3.42;1.17;;;;;;;18.80;67.03;100411.09;3575195;40;20064;-78
2021/07/31 08:35:59;;;;;;;3.67;1.50;;;;;;;18.85;66.89;100411.69;3575243;40;20061;-77
2021/07/31 08:38:27;;;;;;;4.38;0.95;;;;;;;18.80;67.01;100401.38;3557716;40;20054;-77
2021/07/31 08:41:01;;;;;;;2.72;1.17;;;;;;;18.91;66.29;100409.53;3575284;40;20048;-77
2021/07/31 08:43:30;;;;;;;3.95;1.25;;;;;;;18.91;66.48;100414.81;3558159;40;20063;-77
2021/07/31 08:45:58;;;;;;;4.03;1.15;;;;;;;18.90;66.52;100409.59;3577778;40;20051;-77
2021/07/31 08:48:26;;;;;;;;;;;;;;;19.04;66.31;100414.03;3573371;40;20073;-77
2021/07/31 08:51:01;;;;;;;4.50;1.23;;;;;;;19.02;66.16;100405.34;3565544;40;19937;-78
2021/07/31 08:53:30;;;;;;;1.65;0.90;;;;;;;19.09;66.86;100417.25;3560624;40;20086;-77
2021/07/31 08:56:00;;;;;;;5.88;1.60;;;;;;;19.08;66.61;100410.25;3565622;40;20069;-78
2021/07/31 08:58:28;;;;;;;3.15;1.10;;;;;;;19.20;66.68;100420.06;3566494;40;20072;-78
2021/07/31 09:00:56;;;;;;;1.95;0.95;;;;;;;19.23;66.19;100408.44;3559468;40;20124;-77
2021/07/31 09:03:25;;;;;;;4.40;1.23;;;;;;;19.38;66.28;100408.31;3563228;40;20053;-77
2021/07/31 09:05:53;;;;;;;3.58;1.60;;;;;;;19.47;66.25;100411.34;3566198;40;20076;-78
2021/07/31 09:08:21;;;;;;;2.63;1.10;;;;;;;19.52;66.32;100398.66;3557357;40;20066;-77
2021/07/31 09:10:49;;;;;;;3.42;1.48;;;;;;;19.67;66.12;100417.06;3565232;40;20049;-77
2021/07/31 09:13:18;;;;;;;10.10;1.45;;;;;;;19.83;64.91;100424.88;3556608;40;20402;-77
2021/07/31 09:15:54;;;;;;;3.30;1.30;;;;;;;19.93;64.91;100420.66;3573872;40;20773;-77
2021/07/31 09:18:22;;;;;;;4.28;1.80;;;;;;;19.97;64.32;100400.09;3566138;40;20096;-78
2021/07/31 09:20:53;;;;;;;3.17;1.17;;;;;;;20.12;64.40;100416.78;3562314;40;20061;-78
2021/07/31 09:23:20;;;;;;;2.80;1.30;;;;;;;20.12;63.55;100415.00;3554404;40;20048;-78
2021/07/31 09:26:30;;;;;;;5.55;1.50;;;;;;;20.29;64.06;100415.66;3567029;40;20623;-77
2021/07/31 09:29:09;;;;;;;3.28;1.33;;;;;;;20.35;64.00;100416.06;3570802;40;20048;-77
2021/07/31 09:31:39;;;;;;;4.82;1.85;;;;;;;20.33;62.86;100418.00;3564730;40;20060;-78
2021/07/31 09:34:24;;;;;;;4.85;1.95;;;;;;;20.44;63.39;100415.47;3575184;40;20061;-78
2021/07/31 09:37:06;;;;;;;6.03;1.73;;;;;;;20.41;63.25;100415.66;3561421;40;20089;-78
2021/07/31 09:39:56;;;;;;;4.30;1.20;;;;;;;20.49;63.52;100422.28;3554473;40;20361;-78
2021/07/31 09:42:31;;;;;;;2.17;0.90;;;;;;;20.46;63.38;100423.31;3552856;40;20085;-78
2021/07/31 09:45:03;;;;;;;2.60;1.10;;;;;;;20.41;62.70;100425.41;3560529;40;20057;-79
2021/07/31 09:47:33;;;;;;;3.95;1.15;;;;;;;20.41;63.00;100423.63;3574348;40;20089;-78
2021/07/31 09:50:01;;;;;;;4.25;1.35;;;;;;;20.35;63.22;100421.38;3566989;40;20068;-78
2021/07/31 09:52:28;;;;;;;2.53;1.02;;;;;;;20.39;63.46;100428.19;3572813;40;20127;-78
2021/07/31 09:54:57;;;;;;;2.53;1.05;;;;;;;20.38;63.38;100417.69;3577439;40;20065;-77
2021/07/31 09:57:29;;;;;;;4.05;1.27;;;;;;;20.53;64.05;100427.28;3563329;40;20052;-78
2021/07/31 10:00:03;;;;;;;2.35;1.10;;;;;;;20.62;63.67;100429.28;3552975;40;20056;-78
2021/07/31 10:02:35;;;;;;;2.50;1.27;;;;;;;20.67;62.92;100421.84;3558229;40;20053;-78
2021/07/31 10:05:04;;;;;;;3.50;1.13;;;;;;;20.79;62.69;100430.78;3573262;40;20128;-78
2021/07/31 10:07:38;;;;;;;3.05;1.20;;;;;;;20.84;62.37;100415.41;3571661;40;20110;-78
2021/07/31 10:10:07;;;;;;;3.85;1.05;;;;;;;20.87;61.71;100419.63;3558350;40;20432;-77
2021/07/31 10:12:36;;;;;;;1.75;1.05;;;;;;;20.93;61.78;100417.41;3566349;40;20081;-78
2021/07/31 10:15:05;;;;;;;2.90;0.93;;;;;;;20.90;61.11;100412.31;3576046;40;20362;-77
2021/07/31 10:17:34;;;;;;;2.63;1.40;;;;;;;21.03;61.94;100422.03;3573564;40;20049;-77
2021/07/31 10:20:04;;;;;;;2.08;0.95;;;;;;;21.07;63.02;100423.53;3562102;40;20060;-78
2021/07/31 10:22:45;;;;;;;2.75;1.10;;;;;;;21.15;62.15;100423.84;3562792;40;20072;-78
2021/07/31 10:25:16;;;;;;;3.10;1.00;;;;;;;21.17;62.17;100424.56;3565097;40;20092;-78
2021/07/31 10:27:45;;;;;;;2.70;1.08;;;;;;;21.14;61.49;100414.19;3562699;40;20085;-77
2021/07/31 10:30:34;;;;;;;2.75;1.10;;;;;;;21.33;62.08;100430.50;3570595;40;20089;-78
2021/07/31 10:33:02;;;;;;;2.97;1.00;;;;;;;21.35;61.59;100423.31;3568616;40;20065;-78
2021/07/31 10:35:36;;;;;;;2.22;1.00;;;;;;;21.45;61.04;100412.84;3575986;40;20056;-78
2021/07/31 10:38:08;;;;;;;2.55;1.10;;;;;;;21.54;61.16;100408.66;3562035;40;20067;-77
2021/07/31 10:40:38;;;;;;;4.57;1.38;;;;;;;21.64;60.65;100412.34;3555035;40;20117;-78
2021/07/31 10:43:06;;;;;;;2.10;1.00;;;;;;;21.73;59.09;100419.66;3572409;40;20084;-78
2021/07/31 10:45:35;;;;;;;2.53;1.10;;;;;;;21.83;59.56;100407.38;3574502;40;20075;-78
2021/07/31 10:48:27;;;;;;;3.17;1.10;;;;;;;22.10;60.49;100414.22;3564205;40;20053;-78
2021/07/31 10:50:55;;;;;;;2.53;1.13;;;;;;;22.17;58.80;100415.53;3559726;40;20146;-79
2021/07/31 10:53:47;;;;;;;3.55;1.25;;;;;;;22.39;59.70;100415.56;3568125;40;20400;-77
2021/07/31 10:56:15;;;;;;;1.88;1.00;;;;;;;22.44;57.51;100418.72;3561163;40;20057;-78
2021/07/31 10:59:15;;;;;;;1.95;1.13;;;;;;;22.47;59.03;100402.53;3571956;40;20045;-78
2021/07/31 11:01:43;;;;;;;2.45;1.10;;;;;;;22.58;57.00;100419.47;3573346;40;20126;-78
2021/07/31 11:04:49;;;;;;;2.75;1.35;;;;;;;22.69;58.42;100417.69;3563704;40;20407;-77
2021/07/31 11:07:18;;;;;;;2.25;1.08;;;;;;;22.67;57.23;100414.31;3561267;40;20507;-77
2021/07/31 11:10:23;;;;;;;2.53;1.10;;;;;;;22.77;58.27;100414.44;3563489;40;20374;-78
2021/07/31 11:12:50;;;;;;;2.28;1.10;;;;;;;22.73;56.31;100412.97;3569198;40;20460;-78
2021/07/31 11:15:18;;;;;;;2.13;1.10;;;;;;;22.62;56.09;100389.00;3564850;40;20069;-78
2021/07/31 11:17:54;;;;;;;1.75;0.85;;;;;;;22.91;56.71;100405.38;3572018;40;20052;-78
2021/07/31 11:20:26;;;;;;;1.40;0.70;;;;;;;22.96;56.25;100409.41;3568141;40;20120;-78
2021/07/31 11:22:56;;;;;;;2.03;0.80;;;;;;;23.01;56.46;100407.22;3575808;40;20799;-78
2021/07/31 11:25:23;;;;;;;1.50;0.68;;;;;;;23.07;56.51;100405.03;3565741;40;20074;-78
2021/07/31 11:28:08;;;;;;;1.30;0.75;;;;;;;23.31;57.40;100409.22;3570932;40;20061;-77
2021/07/31 11:30:42;;;;;;;1.60;0.65;;;;;;;23.48;56.66;100394.53;3552319;40;20093;-78
2021/07/31 11:33:18;;;;;;;2.00;0.57;;;;;;;23.89;56.72;100408.97;3556735;40;20071;-77
2021/07/31 11:35:45;;;;;;;1.48;0.73;;;;;;;24.13;54.74;100394.53;3557015;40;20080;-78
2021/07/31 11:38:49;;;;;;;1.63;0.70;;;;;;;24.60;56.60;100403.88;3573877;40;20053;-78
2021/07/31 11:41:16;;;;;;;0.88;0.60;;;;;;;24.67;49.99;100401.53;3537793;40;20049;-78
2021/07/31 11:43:53;;;;;;;1.52;0.80;;;;;;;24.93;52.95;100410.78;3566893;40;20134;-78
2021/07/31 11:46:35;;;;;;;2.38;0.85;;;;;;;25.01;53.15;100408.28;3558172;40;20119;-77